Time;durP1;ratioP1;P1;durP2;ratioP2;P2;SDS_P1;SDS_P2;PMS_P1;PMS_P2;Temp;Humidity;BMP_temperature;BMP_pressure;BME280_temperature;BME280_humidity;BME280_pressure;Samples;Min_cycle;Max_cycle;Signal;HPM_P1;HPM_P2
2021/05/14 00:00:38;;;;;;;1.80;1.60;;;;;;;10.28;78.17;95419.94;6192102;23;20768;-90
2021/05/14 00:03:04;;;;;;;4.57;1.20;;;;;;;10.15;78.74;95429.09;6192525;23;20431;-90
2021/05/14 00:05:34;;;;;;;1.50;0.97;;;;;;;10.15;79.22;95421.75;6193084;23;20431;-90
2021/05/14 00:08:00;;;;;;;2.30;1.13;;;;;;;10.23;78.38;95423.63;6197368;23;20395;-89
2021/05/14 00:10:26;;;;;;;1.57;1.23;;;;;;;10.20;78.54;95425.47;6197456;23;20710;-89
2021/05/14 00:12:52;;;;;;;2.77;0.90;;;;;;;10.15;78.41;95423.72;6192673;23;20465;-90
2021/05/14 00:15:19;;;;;;;2.73;1.10;;;;;;;10.18;78.53;95417.22;6192077;23;20509;-90
2021/05/14 00:17:45;;;;;;;1.77;1.10;;;;;;;10.13;78.68;95416.22;6192003;23;20465;-91
2021/05/14 00:20:12;;;;;;;1.20;0.93;;;;;;;10.06;78.97;95414.28;6191420;23;20749;-90
2021/05/14 00:22:40;;;;;;;2.30;1.23;;;;;;;10.10;79.24;95420.00;6192434;23;20478;-90
2021/05/14 00:25:08;;;;;;;1.27;0.90;;;;;;;10.10;79.44;95421.97;6192027;23;20375;-89
2021/05/14 00:27:34;;;;;;;1.67;1.03;;;;;;;10.13;79.37;95426.25;6190446;23;20428;-89
2021/05/14 00:30:00;;;;;;;3.00;1.03;;;;;;;10.14;79.15;95414.94;6190618;23;20429;-89
2021/05/14 00:32:26;;;;;;;5.80;1.50;;;;;;;10.21;78.74;95416.13;6191018;23;20442;-89
2021/05/14 00:34:52;;;;;;;2.27;1.03;;;;;;;10.16;78.87;95415.09;6191036;23;20726;-89
2021/05/14 00:37:18;;;;;;;4.80;1.70;;;;;;;10.15;78.45;95410.25;6190949;23;20390;-88
2021/05/14 00:39:45;;;;;;;1.20;1.10;;;;;;;10.15;78.55;95415.63;6190746;23;20457;-89
2021/05/14 00:42:12;;;;;;;4.30;1.20;;;;;;;10.15;78.72;95419.03;6191634;23;20443;-88
2021/05/14 00:44:43;;;;;;;1.40;1.10;;;;;;;10.11;78.32;95413.34;6190962;23;20382;-88
2021/05/14 00:47:09;;;;;;;1.47;1.37;;;;;;;10.13;79.05;95416.22;6190538;23;20394;-88
2021/05/14 00:49:36;;;;;;;1.60;0.87;;;;;;;10.07;78.79;95418.41;6191229;23;20398;-92
2021/05/14 00:52:04;;;;;;;2.50;1.13;;;;;;;10.05;79.29;95415.59;6193297;23;20407;-89
2021/05/14 00:54:31;;;;;;;1.30;0.80;;;;;;;10.03;78.87;95417.38;6191138;23;20415;-89
2021/05/14 00:56:58;;;;;;;2.10;1.00;;;;;;;9.99;79.23;95423.19;6191865;23;20450;-89
2021/05/14 00:59:25;;;;;;;1.53;1.10;;;;;;;10.03;79.46;95417.38;6192692;23;20446;-88
2021/05/14 01:01:51;;;;;;;2.50;1.20;;;;;;;10.02;78.85;95419.38;6189680;23;20392;-87
2021/05/14 01:04:17;;;;;;;1.70;1.00;;;;;;;9.98;79.38;95418.38;6190388;23;20479;-87
2021/05/14 01:06:43;;;;;;;2.93;1.20;;;;;;;10.02;78.71;95403.19;6190326;23;20444;-87
2021/05/14 01:09:10;;;;;;;1.40;0.87;;;;;;;10.02;79.40;95415.97;6190333;23;20476;-88
2021/05/14 01:11:36;;;;;;;2.30;1.00;;;;;;;10.00;78.91;95416.53;6191648;23;20390;-89
2021/05/14 01:14:04;;;;;;;1.67;1.00;;;;;;;10.00;79.36;95413.13;6190872;23;20425;-89
2021/05/14 01:16:30;;;;;;;3.77;1.03;;;;;;;9.92;79.47;95409.81;6190445;23;20419;-89
2021/05/14 01:18:56;;;;;;;1.23;1.03;;;;;;;9.86;80.01;95404.69;6191573;23;20480;-90
2021/05/14 01:21:24;;;;;;;2.10;1.20;;;;;;;9.88;80.38;95407.53;6191441;23;20427;-90
2021/05/14 01:23:50;;;;;;;1.67;0.90;;;;;;;9.86;79.93;95409.34;6191622;23;20394;-89
2021/05/14 01:26:18;;;;;;;2.03;1.23;;;;;;;9.97;79.57;95408.84;6191268;23;20418;-90
2021/05/14 01:28:45;;;;;;;1.70;1.10;;;;;;;9.95;79.16;95408.69;6190747;23;20463;-90
2021/05/14 01:31:11;;;;;;;2.13;1.30;;;;;;;10.03;78.89;95403.91;6190951;23;20426;-90
2021/05/14 01:33:38;;;;;;;1.40;0.90;;;;;;;10.04;78.51;95403.38;6191050;23;20424;-89
2021/05/14 01:36:05;;;;;;;2.30;1.07;;;;;;;10.04;78.70;95408.75;6191141;23;20456;-91
2021/05/14 01:38:33;;;;;;;2.00;1.00;;;;;;;10.09;78.60;95404.38;6190974;23;20499;-89
2021/05/14 01:40:59;;;;;;;1.50;1.30;;;;;;;10.03;78.98;95398.53;6190416;23;20985;-89
2021/05/14 01:43:26;;;;;;;1.43;0.80;;;;;;;9.99;78.79;95396.22;6200433;23;20981;-88
2021/05/14 01:45:52;;;;;;;1.40;1.17;;;;;;;10.08;78.74;95400.28;6203789;23;20432;-88
2021/05/14 01:48:19;;;;;;;1.03;0.70;;;;;;;10.11;78.04;95397.16;6203921;23;20419;-89
2021/05/14 01:50:45;;;;;;;1.80;0.87;;;;;;;10.01;78.75;95396.41;6199256;23;20388;-90
2021/05/14 01:53:11;;;;;;;1.40;1.10;;;;;;;9.89;79.24;95398.19;6190365;23;20458;-89
2021/05/14 01:55:39;;;;;;;1.07;0.97;;;;;;;9.95;78.97;95408.69;6190782;23;20578;-90
2021/05/14 01:58:06;;;;;;;2.20;1.40;;;;;;;9.92;79.48;95401.72;6212659;23;20403;-89
2021/05/14 02:00:33;;;;;;;1.83;1.40;;;;;;;9.89;79.63;95392.78;6213788;23;20387;-89
2021/05/14 02:03:00;;;;;;;3.60;1.20;;;;;;;9.89;79.81;95392.06;6213786;23;20400;-89
2021/05/14 02:05:26;;;;;;;1.30;1.00;;;;;;;9.76;80.57;95395.13;6191749;23;20404;-89
2021/05/14 02:07:54;;;;;;;2.00;0.87;;;;;;;9.62;81.32;95392.03;6191073;23;20459;-90
2021/05/14 02:10:21;;;;;;;2.03;1.10;;;;;;;9.53;81.21;95393.41;6190390;23;20872;-90
2021/05/14 02:12:48;;;;;;;1.63;1.53;;;;;;;9.51;82.11;95397.91;6191319;23;20403;-90
2021/05/14 02:15:14;;;;;;;1.30;1.00;;;;;;;9.40;82.41;95396.41;6190118;23;20809;-90
2021/05/14 02:17:40;;;;;;;2.13;0.90;;;;;;;9.41;82.57;95394.44;6190978;23;20523;-90
2021/05/14 02:20:07;;;;;;;2.63;1.50;;;;;;;9.42;82.38;95396.59;6190614;23;20417;-90
2021/05/14 02:22:34;;;;;;;3.60;1.20;;;;;;;9.41;82.49;95405.22;6189600;23;20478;-90
2021/05/14 02:25:00;;;;;;;1.97;1.40;;;;;;;9.34;82.82;95403.31;6190637;23;20435;-90
2021/05/14 02:27:27;;;;;;;1.27;0.93;;;;;;;9.37;82.42;95405.59;6191081;23;20470;-90
2021/05/14 02:29:54;;;;;;;3.03;1.40;;;;;;;9.30;82.92;95401.03;6191219;23;20708;-90
2021/05/14 02:32:21;;;;;;;3.47;1.20;;;;;;;9.34;83.27;95401.34;6190672;23;20461;-88
2021/05/14 02:34:48;;;;;;;1.67;1.23;;;;;;;9.33;83.22;95396.50;6190801;23;20422;-88
2021/05/14 02:37:14;;;;;;;2.40;1.17;;;;;;;9.28;83.51;95403.56;6190203;23;20805;-89
2021/05/14 02:39:40;;;;;;;1.73;1.40;;;;;;;9.26;83.72;95400.00;6190757;23;20395;-90
2021/05/14 02:42:08;;;;;;;2.80;1.10;;;;;;;9.31;83.53;95401.72;6199189;23;20482;-90
2021/05/14 02:44:34;;;;;;;1.70;1.00;;;;;;;9.35;83.17;95402.03;6191570;23;20394;-89
2021/05/14 02:47:01;;;;;;;2.80;1.47;;;;;;;9.30;83.33;95403.72;6192391;23;20491;-90
2021/05/14 02:49:27;;;;;;;3.40;1.67;;;;;;;9.30;83.30;95398.34;6191552;23;20406;-90
2021/05/14 02:51:54;;;;;;;5.60;1.40;;;;;;;9.40;83.03;95398.41;6191588;23;20486;-90
2021/05/14 02:54:20;;;;;;;2.73;1.10;;;;;;;9.41;83.31;95400.53;6191219;23;20404;-89
2021/05/14 02:56:46;;;;;;;1.37;1.27;;;;;;;9.33;83.31;95404.59;6191171;23;20504;-91
2021/05/14 02:59:13;;;;;;;2.93;1.30;;;;;;;9.26;83.54;95400.72;6191489;23;20500;-89
2021/05/14 03:01:39;;;;;;;3.10;1.30;;;;;;;9.28;83.56;95403.56;6189611;23;20467;-88
2021/05/14 03:04:06;;;;;;;1.50;1.07;;;;;;;9.30;83.81;95403.72;6190394;23;20722;-88
2021/05/14 03:06:32;;;;;;;1.90;1.33;;;;;;;9.25;83.20;95404.66;6191399;23;20437;-87
2021/05/14 03:08:59;;;;;;;2.20;1.67;;;;;;;9.11;84.45;95406.25;6191587;23;20457;-88
2021/05/14 03:11:25;;;;;;;4.53;1.33;;;;;;;9.19;84.31;95396.13;6190410;23;20418;-89
2021/05/14 03:13:51;;;;;;;5.60;1.83;;;;;;;9.21;83.70;95398.94;6191077;23;20411;-89
2021/05/14 03:16:17;;;;;;;3.70;1.50;;;;;;;9.29;83.61;95404.28;6190169;23;20450;-89
2021/05/14 03:18:43;;;;;;;1.60;1.33;;;;;;;9.26;83.58;95389.94;6190984;23;20358;-89
2021/05/14 03:21:10;;;;;;;1.73;1.37;;;;;;;9.20;83.95;95396.81;6192066;23;20408;-89
2021/05/14 03:23:37;;;;;;;5.70;1.70;;;;;;;9.20;84.07;95405.63;6192295;23;20382;-89
2021/05/14 03:26:03;;;;;;;2.40;1.10;;;;;;;9.18;84.00;95396.69;6192744;23;20745;-89
2021/05/14 03:28:29;;;;;;;1.20;0.97;;;;;;;9.26;83.75;95397.31;6192328;23;20455;-89
2021/05/14 03:30:55;;;;;;;2.73;1.37;;;;;;;9.28;83.47;95392.78;6192932;23;20409;-89
2021/05/14 03:33:21;;;;;;;4.33;1.50;;;;;;;9.27;83.46;95393.34;6194033;23;20382;-89
2021/05/14 03:35:48;;;;;;;1.63;1.37;;;;;;;9.28;83.38;95400.84;6192079;23;21015;-90
2021/05/14 03:38:16;;;;;;;1.40;1.30;;;;;;;9.18;83.58;95405.44;6193191;23;20495;-90
2021/05/14 03:40:42;;;;;;;3.63;1.37;;;;;;;9.15;83.75;95401.16;6192881;23;20445;-90
2021/05/14 03:43:09;;;;;;;2.67;1.40;;;;;;;9.13;83.62;95398.31;6192228;23;20388;-90
2021/05/14 03:45:35;;;;;;;4.13;1.50;;;;;;;9.12;83.94;95394.91;6192797;23;20378;-90
2021/05/14 03:48:01;;;;;;;3.67;1.30;;;;;;;9.19;83.99;95404.19;6192462;23;20453;-90
2021/05/14 03:50:31;;;;;;;4.30;1.73;;;;;;;9.18;83.69;95399.38;6192531;23;20426;-90
2021/05/14 03:52:59;;;;;;;3.93;1.83;;;;;;;9.12;84.07;95402.28;6192094;23;20377;-90
2021/05/14 03:55:27;;;;;;;4.90;1.60;;;;;;;9.05;84.31;95403.78;6193080;23;20854;-90
2021/05/14 03:57:53;;;;;;;1.60;1.40;;;;;;;9.04;84.35;95401.66;6192948;23;20463;-89
2021/05/14 04:00:20;;;;;;;2.80;2.10;;;;;;;9.01;84.30;95392.00;6192577;23;20891;-90
2021/05/14 04:02:46;;;;;;;5.40;1.47;;;;;;;8.99;83.96;95397.22;6192285;23;20419;-89
2021/05/14 04:05:13;;;;;;;5.10;1.60;;;;;;;8.93;84.62;95399.41;6193935;23;20373;-90
2021/05/14 04:07:39;;;;;;;3.83;1.30;;;;;;;8.99;83.97;95389.84;6192793;23;20456;-89
2021/05/14 04:10:12;;;;;;;1.83;1.40;;;;;;;8.93;84.57;95394.75;6192124;23;20737;-90
2021/05/14 04:15:23;;;;;;;3.10;1.30;;;;;;;9.82;81.77;95404.38;6192354;23;20859;-89
2021/05/14 04:17:49;;;;;;;3.23;1.83;;;;;;;10.31;80.01;95397.25;6192244;23;20443;-90
2021/05/14 04:20:15;;;;;;;6.20;1.60;;;;;;;10.85;77.09;95397.88;6192794;23;20371;-89
2021/05/14 04:22:41;;;;;;;1.97;1.30;;;;;;;10.75;75.27;95395.84;6192724;23;20435;-90
2021/05/14 04:25:08;;;;;;;3.47;1.40;;;;;;;10.58;75.51;95398.66;6191547;23;20408;-90
2021/05/14 04:27:34;;;;;;;6.00;1.30;;;;;;;10.25;76.84;95405.63;6192496;23;20406;-89
2021/05/14 04:30:01;;;;;;;2.20;1.30;;;;;;;10.25;77.96;95400.22;6193185;23;20445;-90
2021/05/14 04:32:27;;;;;;;3.63;1.47;;;;;;;10.82;76.59;95405.09;6192754;23;20446;-89
2021/05/14 04:34:54;;;;;;;9.03;1.90;;;;;;;11.67;72.41;95403.03;6193004;23;20414;-90
2021/05/14 04:37:20;;;;;;;2.70;1.30;;;;;;;12.43;70.35;95402.19;6200122;23;20461;-89
2021/05/14 04:39:46;;;;;;;3.57;1.60;;;;;;;12.84;67.89;95408.94;6197374;23;20471;-89
2021/05/14 04:42:12;;;;;;;1.60;1.10;;;;;;;13.45;65.28;95415.59;6197815;23;20388;-89
2021/05/14 04:44:39;;;;;;;2.03;1.20;;;;;;;13.79;63.67;95411.59;6201630;23;20407;-90
2021/05/14 04:47:06;;;;;;;2.70;1.40;;;;;;;14.30;62.21;95423.50;6213900;23;20434;-90
2021/05/14 04:49:32;;;;;;;8.00;1.20;;;;;;;14.32;61.67;95421.63;6194561;23;20460;-89
2021/05/14 04:51:58;;;;;;;1.20;1.10;;;;;;;14.73;60.56;95422.03;6191168;23;20961;-89
2021/05/14 04:54:24;;;;;;;1.67;1.30;;;;;;;15.10;58.59;95421.44;6191132;23;20426;-89
2021/05/14 04:56:51;;;;;;;1.97;1.40;;;;;;;14.90;59.36;95420.97;6192134;23;20448;-89
2021/05/14 04:59:17;;;;;;;1.80;1.33;;;;;;;15.41;57.91;95422.50;6192486;23;20407;-89
2021/05/14 05:01:43;;;;;;;1.67;1.57;;;;;;;15.83;56.54;95424.19;6191319;23;20431;-89
2021/05/14 05:04:11;;;;;;;3.13;1.20;;;;;;;16.01;55.60;95425.16;6191131;23;20487;-89
2021/05/14 05:06:40;;;;;;;1.87;1.20;;;;;;;15.99;55.79;95421.63;6190862;23;20433;-90
2021/05/14 05:09:06;;;;;;;2.20;1.37;;;;;;;16.13;55.32;95427.13;6191043;23;20404;-90
2021/05/14 05:11:33;;;;;;;2.20;1.20;;;;;;;16.48;53.96;95433.75;6192077;23;20431;-91
2021/05/14 05:13:59;;;;;;;2.00;1.50;;;;;;;16.49;53.83;95434.47;6193147;23;20412;-90
2021/05/14 05:16:25;;;;;;;1.57;1.37;;;;;;;16.65;53.78;95438.06;6200840;23;20466;-90
2021/05/14 05:18:51;;;;;;;1.50;1.30;;;;;;;17.19;52.19;95442.13;6193484;23;20442;-91
2021/05/14 05:21:18;;;;;;;1.77;1.20;;;;;;;17.04;52.61;95441.41;6191747;23;20389;-91
2021/05/14 05:23:44;;;;;;;7.70;1.80;;;;;;;17.28;51.84;95438.47;6192196;23;20446;-91
2021/05/14 05:26:10;;;;;;;4.10;1.27;;;;;;;17.61;51.42;95442.19;6192116;23;20466;-91
2021/05/14 05:28:36;;;;;;;1.87;1.10;;;;;;;18.20;49.68;95450.34;6192198;23;20760;-91
2021/05/14 05:31:02;;;;;;;2.93;1.73;;;;;;;18.09;49.48;95443.75;6193045;23;20410;-90
2021/05/14 05:33:28;;;;;;;4.50;1.33;;;;;;;17.88;50.96;95443.41;6193777;23;20516;-91
2021/05/14 05:35:54;;;;;;;3.07;1.80;;;;;;;18.32;49.69;95450.22;6192574;23;20440;-91
2021/05/14 05:38:23;;;;;;;1.97;1.30;;;;;;;18.08;50.31;95453.25;6192619;23;20439;-91
2021/05/14 05:40:50;;;;;;;1.90;1.50;;;;;;;18.35;49.47;95454.47;6192176;23;20416;-90
2021/05/14 05:43:17;;;;;;;2.60;1.63;;;;;;;18.35;49.33;95459.91;6192523;23;20397;-89
2021/05/14 05:45:44;;;;;;;1.60;1.47;;;;;;;18.40;48.67;95461.50;6192199;23;20517;-89
2021/05/14 05:48:10;;;;;;;2.43;1.30;;;;;;;18.48;48.99;95454.38;6192351;23;20506;-89
2021/05/14 05:50:36;;;;;;;5.00;1.53;;;;;;;18.67;48.98;95462.09;6193544;23;20400;-90
2021/05/14 05:53:03;;;;;;;3.07;1.33;;;;;;;19.04;48.34;95458.91;6192173;23;20487;-89
2021/05/14 05:55:30;;;;;;;3.90;1.70;;;;;;;18.93;48.46;95453.63;6191840;23;20883;-88
2021/05/14 05:57:56;;;;;;;1.97;1.20;;;;;;;19.32;47.50;95461.41;6191995;23;20539;-89
2021/05/14 06:00:23;;;;;;;1.97;1.10;;;;;;;19.44;47.21;95465.38;6192155;23;20490;-90
2021/05/14 06:02:49;;;;;;;1.40;1.10;;;;;;;19.54;47.03;95467.84;6192303;23;20968;-90
2021/05/14 06:05:15;;;;;;;4.20;1.90;;;;;;;20.06;46.02;95469.22;6193282;23;20906;-90
2021/05/14 06:07:41;;;;;;;5.67;1.27;;;;;;;19.96;45.73;95477.75;6192685;23;20420;-89
2021/05/14 06:10:08;;;;;;;4.17;1.43;;;;;;;19.94;45.86;95482.44;6191022;23;20422;-90
2021/05/14 06:12:35;;;;;;;2.50;1.53;;;;;;;20.44;45.47;95475.47;6192889;23;20871;-91
2021/05/14 06:15:01;;;;;;;2.23;0.80;;;;;;;20.51;45.14;95474.38;6194415;23;20404;-91
2021/05/14 06:17:27;;;;;;;2.67;1.00;;;;;;;20.54;45.04;95478.59;6191833;23;20482;-91
2021/05/14 06:19:56;;;;;;;1.33;0.87;;;;;;;20.29;45.30;95477.00;6193682;23;20404;-91
2021/05/14 06:22:22;;;;;;;4.43;1.20;;;;;;;20.38;45.21;95486.22;6193665;23;20396;-89
2021/05/14 06:24:48;;;;;;;2.60;1.17;;;;;;;20.72;44.45;95488.22;6191229;23;20416;-89
2021/05/14 06:27:14;;;;;;;1.93;0.70;;;;;;;21.28;42.74;95486.09;6191430;23;20495;-89
2021/05/14 06:29:45;;;;;;;1.03;0.63;;;;;;;21.48;40.86;95491.56;6191103;23;20388;-89
2021/05/14 06:32:12;;;;;;;4.10;1.07;;;;;;;19.98;43.56;95486.06;6193281;23;20491;-90
2021/05/14 06:34:38;;;;;;;1.27;0.80;;;;;;;19.89;44.00;95489.78;6193157;23;20548;-89
2021/05/14 06:37:04;;;;;;;2.33;0.50;;;;;;;20.28;44.19;95484.50;6193024;23;20439;-88
2021/05/14 06:39:30;;;;;;;0.90;0.63;;;;;;;20.35;42.80;95488.19;6194372;23;20466;-89
2021/05/14 06:41:56;;;;;;;2.43;0.90;;;;;;;19.82;43.73;95499.09;6192717;23;20557;-89
2021/05/14 06:44:22;;;;;;;2.73;0.77;;;;;;;19.31;45.85;95482.59;6192237;23;20428;-87
2021/05/14 06:46:50;;;;;;;0.70;0.63;;;;;;;20.27;43.80;95488.56;6192573;23;20420;-88
2021/05/14 06:49:17;;;;;;;1.40;0.97;;;;;;;19.57;44.75;95483.72;6192732;23;20396;-89
2021/05/14 06:51:44;;;;;;;1.23;0.60;;;;;;;20.32;42.71;95486.00;6193489;23;20438;-88
2021/05/14 06:54:10;;;;;;;0.87;0.70;;;;;;;20.88;42.13;95493.56;6194146;23;20423;-89
2021/05/14 06:56:36;;;;;;;1.40;0.70;;;;;;;21.24;41.86;95497.63;6197161;23;20467;-89
2021/05/14 06:59:02;;;;;;;1.07;0.80;;;;;;;21.03;41.55;95497.53;6191547;23;20458;-89
2021/05/14 07:01:28;;;;;;;3.07;0.50;;;;;;;20.57;42.35;95493.81;6191687;23;20435;-89
2021/05/14 07:03:55;;;;;;;2.20;1.37;;;;;;;20.46;43.50;95494.75;6191407;23;20380;-89
2021/05/14 07:06:22;;;;;;;1.30;0.70;;;;;;;20.53;43.78;95499.13;6193535;23;20479;-90
2021/05/14 07:08:49;;;;;;;1.37;0.60;;;;;;;21.09;42.36;95495.00;6194690;23;20475;-89
2021/05/14 07:11:15;;;;;;;1.73;0.80;;;;;;;20.96;42.02;95501.38;6194887;23;20494;-89
2021/05/14 07:13:42;;;;;;;1.17;0.67;;;;;;;21.18;41.65;95502.91;6193032;23;20879;-89
2021/05/14 07:16:08;;;;;;;0.70;0.70;;;;;;;20.88;41.31;95510.03;6193707;23;20431;-89
2021/05/14 07:18:34;;;;;;;0.73;0.50;;;;;;;20.18;42.02;95500.53;6191733;23;20798;-88
2021/05/14 07:21:01;;;;;;;1.17;0.60;;;;;;;18.58;45.46;95500.59;6192578;23;20399;-89
2021/05/14 07:23:27;;;;;;;1.43;0.57;;;;;;;17.40;48.05;95499.06;6191552;23;20906;-89
2021/05/14 07:25:54;;;;;;;1.37;0.60;;;;;;;16.99;50.09;95483.41;6193232;23;20400;-89
2021/05/14 07:28:20;;;;;;;1.10;0.70;;;;;;;16.86;49.93;95488.84;6191656;23;20499;-88
2021/05/14 07:30:47;;;;;;;1.03;0.50;;;;;;;16.37;51.09;95491.03;6197037;23;20415;-89
2021/05/14 07:33:13;;;;;;;4.37;0.83;;;;;;;16.85;50.52;95487.44;6195107;23;20439;-90
2021/05/14 07:35:39;;;;;;;0.70;0.50;;;;;;;16.98;50.41;95490.16;6196100;23;20460;-90
2021/05/14 07:38:06;;;;;;;6.33;1.20;;;;;;;16.80;52.43;95491.25;6194678;23;20423;-90
2021/05/14 07:40:32;;;;;;;0.93;0.63;;;;;;;17.26;50.03;95493.59;6193718;23;20426;-90
2021/05/14 07:42:58;;;;;;;1.90;0.70;;;;;;;18.13;48.74;95490.34;6194009;23;20805;-91
2021/05/14 07:45:25;;;;;;;1.90;0.97;;;;;;;18.60;47.71;95497.97;6193790;23;20442;-90
2021/05/14 07:47:51;;;;;;;9.30;1.50;;;;;;;18.61;48.25;95493.91;6195260;23;20443;-91
2021/05/14 07:50:17;;;;;;;0.87;0.87;;;;;;;18.51;48.61;95498.94;6195725;23;20459;-90
2021/05/14 07:52:45;;;;;;;2.67;1.00;;;;;;;18.70;48.74;95495.69;6195926;23;20408;-90
2021/05/14 07:55:12;;;;;;;2.20;0.80;;;;;;;18.16;48.12;95493.88;6199121;23;20390;-89
2021/05/14 07:57:38;;;;;;;0.77;0.77;;;;;;;16.94;52.07;95489.97;6199672;23;20468;-90
2021/05/14 08:00:06;;;;;;;2.73;1.00;;;;;;;16.95;52.92;95485.91;6194645;23;20464;-91
2021/05/14 08:02:51;;;;;;;2.00;0.97;;;;;;;16.95;52.56;95494.09;6195920;23;20439;-92
2021/05/14 08:05:17;;;;;;;2.17;1.00;;;;;;;16.99;53.31;95490.88;6202422;23;20408;-94
2021/05/14 08:08:01;;;;;;;2.63;1.30;;;;;;;16.86;53.62;95497.00;6199517;23;20461;-91
2021/05/14 08:10:37;;;;;;;4.80;1.50;;;;;;;16.69;53.47;95492.75;6200385;23;20469;-95
2021/05/14 08:13:15;;;;;;;;;;;;;;;;;;;;;
2021/05/14 08:15:43;;;;;;;3.73;1.23;;;;;;;16.22;54.94;95500.44;6197714;23;20392;-91
2021/05/14 08:18:42;;;;;;;2.77;1.20;;;;;;;15.92;55.65;95485.88;6196379;23;20455;-91
2021/05/14 08:21:40;;;;;;;;;;;;;;;;;;;;;
2021/05/14 08:42:13;;;;;;;1.90;0.80;;;;;;;17.61;47.15;95496.75;6222850;23;20472;-90
2021/05/14 08:44:40;;;;;;;1.03;0.83;;;;;;;17.58;47.45;95492.50;6224141;23;20395;-90
2021/05/14 08:47:06;;;;;;;3.60;1.37;;;;;;;18.14;46.75;95499.94;6214969;23;20451;-91
2021/05/14 08:49:34;;;;;;;1.63;0.70;;;;;;;18.04;45.68;95494.00;6205341;23;20400;-92
2021/05/14 08:52:03;;;;;;;1.37;0.87;;;;;;;18.26;45.97;95505.28;6201285;23;20422;-91
2021/05/14 08:54:31;;;;;;;0.80;0.50;;;;;;;18.25;45.52;95498.41;6202741;23;20438;-91
2021/05/14 08:56:57;;;;;;;0.80;0.60;;;;;;;18.47;45.86;95504.88;6207314;23;20486;-91
2021/05/14 08:59:24;;;;;;;0.90;0.67;;;;;;;18.50;44.91;95502.97;6203582;23;20459;-91
2021/05/14 09:01:54;;;;;;;0.70;0.60;;;;;;;18.19;44.73;95504.28;6199820;23;20423;-90
2021/05/14 09:04:20;;;;;;;1.17;0.60;;;;;;;18.20;45.34;95499.50;6197745;23;20851;-92
2021/05/14 09:06:47;;;;;;;1.00;0.80;;;;;;;18.20;44.37;95500.22;6194907;23;20420;-90
2021/05/14 09:09:15;;;;;;;1.63;0.77;;;;;;;18.37;45.01;95495.50;6194418;23;20407;-90
2021/05/14 09:11:43;;;;;;;2.53;1.33;;;;;;;18.55;43.91;95499.81;6195473;23;20416;-91
2021/05/14 09:14:32;;;;;;;6.07;1.70;;;;;;;18.49;44.43;95496.81;6194822;23;20404;-90
2021/05/14 09:17:06;;;;;;;3.50;0.80;;;;;;;18.63;44.56;95494.72;6198399;23;20984;-91
2021/05/14 09:19:34;;;;;;;2.50;0.57;;;;;;;18.85;43.74;95497.00;6194509;23;20395;-90
2021/05/14 09:22:08;;;;;;;0.53;0.50;;;;;;;18.99;43.13;95492.88;6195112;23;20758;-90
2021/05/14 09:24:34;;;;;;;1.57;0.83;;;;;;;19.00;43.26;95494.28;6197691;23;20427;-90
2021/05/14 09:27:01;;;;;;;0.90;0.60;;;;;;;18.93;43.10;95489.16;6194896;23;20502;-91
2021/05/14 09:29:38;;;;;;;2.67;1.07;;;;;;;18.75;43.47;95491.81;6192831;23;20487;-90
2021/05/14 09:32:22;;;;;;;1.70;1.07;;;;;;;18.32;45.17;95493.94;6194879;23;20404;-90
2021/05/14 09:34:50;;;;;;;1.53;0.90;;;;;;;17.48;47.71;95491.97;6198991;23;20408;-92
2021/05/14 09:37:16;;;;;;;1.50;0.87;;;;;;;17.08;48.92;95492.69;6195746;23;20451;-91
2021/05/14 09:39:49;;;;;;;3.17;1.07;;;;;;;16.76;49.13;95486.28;6196590;23;20544;-90
2021/05/14 09:42:30;;;;;;;2.33;0.60;;;;;;;16.45;49.65;95497.59;6193642;23;20412;-90
2021/05/14 09:48:01;;;;;;;5.10;0.97;;;;;;;15.70;54.95;95489.38;5125888;27;20596;-88
2021/05/14 09:50:33;;;;;;;3.97;0.80;;;;;;;15.16;57.51;95482.25;5119195;28;20444;-88
2021/05/14 09:53:04;;;;;;;1.93;0.77;;;;;;;15.05;59.09;95498.56;5118495;28;20432;-89
2021/05/14 09:55:31;;;;;;;0.90;0.60;;;;;;;15.18;57.95;95489.81;5117021;28;20462;-86
2021/05/14 09:58:02;;;;;;;1.63;1.00;;;;;;;15.13;58.47;95490.91;5117507;28;20490;-88
2021/05/14 10:00:28;;;;;;;1.10;0.70;;;;;;;15.01;58.55;95501.75;5116465;28;20407;-88
2021/05/14 10:02:57;;;;;;;1.13;0.70;;;;;;;15.04;58.65;95489.69;5118287;28;20445;-90
2021/05/14 10:05:24;;;;;;;2.70;0.97;;;;;;;15.11;57.44;95488.75;5117538;28;20459;-91
2021/05/14 10:07:50;;;;;;;2.80;1.10;;;;;;;15.02;57.49;95484.88;5119737;28;20467;-89
2021/05/14 10:10:35;;;;;;;1.70;0.80;;;;;;;14.94;57.41;95491.84;5118531;28;20430;-90
2021/05/14 10:13:02;;;;;;;1.40;0.70;;;;;;;14.94;57.63;95489.13;5117682;28;20414;-91
2021/05/14 10:15:29;;;;;;;1.63;0.70;;;;;;;15.30;56.47;95479.63;5117782;28;20436;-91
2021/05/14 10:17:56;;;;;;;8.07;1.10;;;;;;;15.29;58.32;95481.66;5118450;28;20453;-91
2021/05/14 10:20:28;;;;;;;6.17;1.30;;;;;;;15.21;60.22;95483.91;5117625;28;20929;-92
2021/05/14 10:22:56;;;;;;;0.70;0.67;;;;;;;15.11;60.27;95490.75;5119431;28;20442;-90
2021/05/14 10:25:43;;;;;;;2.50;0.87;;;;;;;15.16;60.55;95484.28;5119735;28;20511;-90
2021/05/14 10:28:11;;;;;;;1.90;1.00;;;;;;;15.00;61.08;95492.88;5118894;28;20942;-88
2021/05/14 10:30:57;;;;;;;3.53;1.10;;;;;;;14.65;62.71;95484.03;5123712;28;20465;-90
2021/05/14 10:33:39;;;;;;;0.70;0.47;;;;;;;14.42;64.38;95486.69;5120479;28;20503;-90
2021/05/14 10:36:11;;;;;;;1.20;0.80;;;;;;;14.18;66.43;95485.91;5118235;28;20488;-90
2021/05/14 10:38:37;;;;;;;1.23;0.80;;;;;;;14.09;66.98;95496.84;5116863;28;20435;-89
2021/05/14 10:41:24;;;;;;;2.27;0.87;;;;;;;14.28;64.19;95504.81;5125127;28;20545;-92
2021/05/14 10:44:11;;;;;;;1.63;0.60;;;;;;;14.24;64.51;95505.28;5125441;28;20418;-91
2021/05/14 10:46:37;;;;;;;3.17;0.97;;;;;;;14.60;66.91;95500.66;5121993;28;20518;-94
2021/05/14 10:49:05;;;;;;;1.60;0.70;;;;;;;14.63;66.17;95513.75;5127237;28;20415;-92
2021/05/14 10:52:02;;;;;;;4.23;1.07;;;;;;;14.53;64.99;95510.44;5123932;28;20410;-91
2021/05/14 10:54:53;;;;;;;1.30;0.83;;;;;;;14.64;64.13;95503.59;5098886;28;20423;-92
2021/05/14 10:57:49;;;;;;;1.10;0.70;;;;;;;14.49;63.43;95499.34;5112175;28;20464;-92
2021/05/14 11:00:34;;;;;;;2.43;0.70;;;;;;;14.74;63.49;95494.06;5045310;28;20430;-89
2021/05/14 11:03:20;;;;;;;4.23;0.67;;;;;;;15.13;63.17;95496.31;5083883;28;20443;-90
2021/05/14 11:05:49;;;;;;;3.03;0.80;;;;;;;15.35;60.64;95489.44;5105722;28;20429;-90
2021/05/14 11:08:45;;;;;;;2.00;0.90;;;;;;;15.48;62.53;95486.84;5105861;28;20435;-91
2021/05/14 11:11:13;;;;;;;2.17;1.03;;;;;;;15.38;63.37;95496.44;5103194;28;20459;-90
2021/05/14 11:13:43;;;;;;;2.40;1.03;;;;;;;15.73;61.22;95490.91;5102984;28;20440;-90
2021/05/14 11:16:38;;;;;;;3.50;1.50;;;;;;;15.83;60.14;95492.19;5101361;28;20436;-90
2021/05/14 11:19:13;;;;;;;1.73;1.00;;;;;;;16.30;58.57;95487.25;5101590;28;20443;-90
2021/05/14 11:21:57;;;;;;;0.80;0.70;;;;;;;16.55;56.36;95489.28;5101589;28;20481;-90
2021/05/14 11:24:29;;;;;;;2.30;1.10;;;;;;;16.06;59.76;95483.25;5102160;28;20427;-90
2021/05/14 11:27:00;;;;;;;1.00;0.70;;;;;;;16.37;57.78;95480.13;5100736;28;20491;-90
2021/05/14 11:29:34;;;;;;;2.67;0.70;;;;;;;16.21;57.20;95476.53;5101887;28;20974;-90
2021/05/14 11:32:29;;;;;;;1.77;0.70;;;;;;;15.88;59.79;95469.34;5101533;28;20462;-90
2021/05/14 11:35:07;;;;;;;0.50;0.40;;;;;;;15.79;57.85;95472.22;5102810;28;20475;-90
2021/05/14 11:37:34;;;;;;;1.77;0.60;;;;;;;15.44;56.66;95472.28;5102184;28;20545;-90
2021/05/14 11:40:14;;;;;;;1.07;0.80;;;;;;;15.65;56.78;95474.88;5102327;28;20436;-90
2021/05/14 11:42:43;;;;;;;1.53;0.50;;;;;;;15.94;55.44;95479.88;5102443;28;20469;-90
2021/05/14 11:45:11;;;;;;;1.47;0.50;;;;;;;15.99;55.26;95470.59;5101407;28;20467;-90
2021/05/14 11:47:43;;;;;;;0.60;0.40;;;;;;;16.15;54.84;95466.03;5102019;28;20485;-89
2021/05/14 11:50:10;;;;;;;0.50;0.40;;;;;;;16.50;54.09;95465.84;5103968;28;20471;-89
2021/05/14 11:52:39;;;;;;;1.03;0.67;;;;;;;16.79;52.55;95460.56;5104914;28;20524;-90
2021/05/14 11:55:10;;;;;;;2.10;0.90;;;;;;;16.86;55.16;95464.31;5104568;28;20516;-89
2021/05/14 11:57:37;;;;;;;0.97;0.60;;;;;;;16.76;55.68;95459.03;5083500;28;20492;-89
2021/05/14 12:00:05;;;;;;;4.67;1.00;;;;;;;16.44;55.88;95460.09;5095598;28;20484;-89
2021/05/14 12:02:36;;;;;;;1.30;0.83;;;;;;;16.64;54.92;95460.44;5102463;28;20432;-89
2021/05/14 12:05:03;;;;;;;2.60;0.70;;;;;;;16.59;54.00;95451.38;5099815;28;20534;-89
2021/05/14 12:07:29;;;;;;;0.70;0.50;;;;;;;16.69;54.63;95460.06;5100771;28;20579;-89
2021/05/14 12:09:59;;;;;;;2.07;0.53;;;;;;;16.87;54.42;95461.00;5101350;28;20460;-89